sensor_id;sensor_type;location;lat;lon;timestamp;temperature;humidity
3850;DHT22;1940;51.052;13.678;2023-02-28T00:00:47;0.90;89.10
3850;DHT22;1940;51.052;13.678;2023-02-28T00:03:13;1.00;88.80
3850;DHT22;1940;51.052;13.678;2023-02-28T00:05:38;1.10;88.40
3850;DHT22;1940;51.052;13.678;2023-02-28T00:08:04;1.10;88.10
3850;DHT22;1940;51.052;13.678;2023-02-28T00:10:31;1.10;88.00
3850;DHT22;1940;51.052;13.678;2023-02-28T00:13:02;1.10;87.80
3850;DHT22;1940;51.052;13.678;2023-02-28T00:15:28;1.10;87.70
3850;DHT22;1940;51.052;13.678;2023-02-28T00:17:54;1.10;87.60
3850;DHT22;1940;51.052;13.678;2023-02-28T00:20:20;1.00;87.50
3850;DHT22;1940;51.052;13.678;2023-02-28T00:22:48;1.00;87.40
3850;DHT22;1940;51.052;13.678;2023-02-28T00:25:17;1.10;87.00
3850;DHT22;1940;51.052;13.678;2023-02-28T00:27:44;1.10;86.50
3850;DHT22;1940;51.052;13.678;2023-02-28T00:30:12;1.10;86.60
3850;DHT22;1940;51.052;13.678;2023-02-28T00:32:38;1.10;86.60
3850;DHT22;1940;51.052;13.678;2023-02-28T00:35:04;1.10;86.30
3850;DHT22;1940;51.052;13.678;2023-02-28T00:37:30;1.10;86.40
3850;DHT22;1940;51.052;13.678;2023-02-28T00:39:55;1.10;86.30
3850;DHT22;1940;51.052;13.678;2023-02-28T00:42:21;1.20;86.00
3850;DHT22;1940;51.052;13.678;2023-02-28T00:44:47;1.10;85.50
3850;DHT22;1940;51.052;13.678;2023-02-28T00:47:12;1.10;84.60
3850;DHT22;1940;51.052;13.678;2023-02-28T00:49:37;1.10;84.20
3850;DHT22;1940;51.052;13.678;2023-02-28T00:52:03;1.10;84.10
3850;DHT22;1940;51.052;13.678;2023-02-28T00:54:29;1.10;84.20
3850;DHT22;1940;51.052;13.678;2023-02-28T00:56:54;1.20;84.20
3850;DHT22;1940;51.052;13.678;2023-02-28T00:59:20;1.20;84.30
3850;DHT22;1940;51.052;13.678;2023-02-28T01:01:46;1.10;84.50
3850;DHT22;1940;51.052;13.678;2023-02-28T01:04:12;1.20;84.50
3850;DHT22;1940;51.052;13.678;2023-02-28T01:06:38;1.20;84.30
3850;DHT22;1940;51.052;13.678;2023-02-28T01:09:05;1.10;84.60
3850;DHT22;1940;51.052;13.678;2023-02-28T01:11:31;1.00;84.10
3850;DHT22;1940;51.052;13.678;2023-02-28T01:13:57;0.80;83.90
3850;DHT22;1940;51.052;13.678;2023-02-28T01:16:23;0.70;84.40
3850;DHT22;1940;51.052;13.678;2023-02-28T01:18:48;0.70;84.50
3850;DHT22;1940;51.052;13.678;2023-02-28T01:21:16;0.80;84.20
3850;DHT22;1940;51.052;13.678;2023-02-28T01:23:42;0.90;84.20
3850;DHT22;1940;51.052;13.678;2023-02-28T01:26:11;1.00;84.00
3850;DHT22;1940;51.052;13.678;2023-02-28T01:28:37;1.00;83.70
3850;DHT22;1940;51.052;13.678;2023-02-28T01:31:03;1.00;83.70
3850;DHT22;1940;51.052;13.678;2023-02-28T01:33:29;1.00;83.70
3850;DHT22;1940;51.052;13.678;2023-02-28T01:36:05;1.10;83.60
3850;DHT22;1940;51.052;13.678;2023-02-28T01:38:31;1.10;83.80
3850;DHT22;1940;51.052;13.678;2023-02-28T01:40:57;1.10;84.10
3850;DHT22;1940;51.052;13.678;2023-02-28T01:43:25;1.10;84.00
3850;DHT22;1940;51.052;13.678;2023-02-28T01:45:52;1.00;84.10
3850;DHT22;1940;51.052;13.678;2023-02-28T01:48:19;0.90;84.30
3850;DHT22;1940;51.052;13.678;2023-02-28T01:50:46;0.80;84.70
3850;DHT22;1940;51.052;13.678;2023-02-28T01:53:17;0.80;84.90
3850;DHT22;1940;51.052;13.678;2023-02-28T01:55:47;0.70;84.90
3850;DHT22;1940;51.052;13.678;2023-02-28T01:58:13;0.60;85.10
3850;DHT22;1940;51.052;13.678;2023-02-28T02:00:39;0.60;85.30
3850;DHT22;1940;51.052;13.678;2023-02-28T02:03:09;0.70;85.20
3850;DHT22;1940;51.052;13.678;2023-02-28T02:05:37;0.60;85.50
3850;DHT22;1940;51.052;13.678;2023-02-28T02:08:06;0.70;85.80
3850;DHT22;1940;51.052;13.678;2023-02-28T02:10:36;0.80;85.80
3850;DHT22;1940;51.052;13.678;2023-02-28T02:13:24;0.70;85.60
3850;DHT22;1940;51.052;13.678;2023-02-28T02:18:52;0.50;86.60
3850;DHT22;1940;51.052;13.678;2023-02-28T02:21:48;0.40;87.20
3850;DHT22;1940;51.052;13.678;2023-02-28T02:36:00;0.20;88.40
3850;DHT22;1940;51.052;13.678;2023-02-28T02:38:49;0.20;88.70
3850;DHT22;1940;51.052;13.678;2023-02-28T02:43:50;0.20;89.10
3850;DHT22;1940;51.052;13.678;2023-02-28T02:46:27;0.20;89.10
3850;DHT22;1940;51.052;13.678;2023-02-28T02:48:55;0.20;89.20
3850;DHT22;1940;51.052;13.678;2023-02-28T02:51:23;0.20;88.80
3850;DHT22;1940;51.052;13.678;2023-02-28T02:53:55;0.20;88.90
3850;DHT22;1940;51.052;13.678;2023-02-28T02:56:25;0.20;88.80
3850;DHT22;1940;51.052;13.678;2023-02-28T02:58:54;0.20;89.00
3850;DHT22;1940;51.052;13.678;2023-02-28T03:01:23;0.20;89.00
3850;DHT22;1940;51.052;13.678;2023-02-28T03:04:02;0.20;89.00
3850;DHT22;1940;51.052;13.678;2023-02-28T03:06:29;0.20;89.10
3850;DHT22;1940;51.052;13.678;2023-02-28T03:08:54;0.20;89.10
3850;DHT22;1940;51.052;13.678;2023-02-28T03:11:20;0.20;89.30
3850;DHT22;1940;51.052;13.678;2023-02-28T03:14:09;0.20;89.50
3850;DHT22;1940;51.052;13.678;2023-02-28T03:19:39;0.10;88.50
3850;DHT22;1940;51.052;13.678;2023-02-28T03:22:33;0.10;88.60
3850;DHT22;1940;51.052;13.678;2023-02-28T03:25:27;0.10;88.50
3850;DHT22;1940;51.052;13.678;2023-02-28T03:28:02;0.10;88.40
3850;DHT22;1940;51.052;13.678;2023-02-28T03:30:37;0.00;88.30
3850;DHT22;1940;51.052;13.678;2023-02-28T03:35:59;0.00;88.40
3850;DHT22;1940;51.052;13.678;2023-02-28T03:38:33;-0.10;88.60
3850;DHT22;1940;51.052;13.678;2023-02-28T03:43:40;-0.10;88.70
3850;DHT22;1940;51.052;13.678;2023-02-28T03:46:10;-0.20;89.10
3850;DHT22;1940;51.052;13.678;2023-02-28T03:48:42;-0.20;89.30
3850;DHT22;1940;51.052;13.678;2023-02-28T03:51:11;-0.20;89.20
3850;DHT22;1940;51.052;13.678;2023-02-28T03:53:51;-0.20;89.30
3850;DHT22;1940;51.052;13.678;2023-02-28T03:56:33;-0.30;89.30
3850;DHT22;1940;51.052;13.678;2023-02-28T03:59:14;-0.30;89.50
3850;DHT22;1940;51.052;13.678;2023-02-28T04:01:43;-0.40;89.80
3850;DHT22;1940;51.052;13.678;2023-02-28T04:04:10;-0.50;90.00
3850;DHT22;1940;51.052;13.678;2023-02-28T04:06:36;-0.50;90.00
3850;DHT22;1940;51.052;13.678;2023-02-28T04:09:03;-0.60;90.20
3850;DHT22;1940;51.052;13.678;2023-02-28T04:11:44;-0.60;90.40
3850;DHT22;1940;51.052;13.678;2023-02-28T04:14:11;-0.60;90.20
3850;DHT22;1940;51.052;13.678;2023-02-28T04:16:39;-0.70;90.50
3850;DHT22;1940;51.052;13.678;2023-02-28T04:19:06;-0.80;90.70
3850;DHT22;1940;51.052;13.678;2023-02-28T04:21:43;-0.80;90.90
3850;DHT22;1940;51.052;13.678;2023-02-28T04:24:11;-0.80;91.10
3850;DHT22;1940;51.052;13.678;2023-02-28T04:26:41;-0.90;90.90
3850;DHT22;1940;51.052;13.678;2023-02-28T04:29:09;-0.90;91.20
3850;DHT22;1940;51.052;13.678;2023-02-28T04:31:34;-1.00;91.30
3850;DHT22;1940;51.052;13.678;2023-02-28T04:34:00;-1.10;91.60
3850;DHT22;1940;51.052;13.678;2023-02-28T04:36:26;-1.10;91.80
3850;DHT22;1940;51.052;13.678;2023-02-28T04:38:52;-1.10;91.80
3850;DHT22;1940;51.052;13.678;2023-02-28T04:41:18;-1.20;92.10
3850;DHT22;1940;51.052;13.678;2023-02-28T04:43:43;-1.20;92.30
3850;DHT22;1940;51.052;13.678;2023-02-28T04:46:09;-1.20;92.30
3850;DHT22;1940;51.052;13.678;2023-02-28T04:48:36;-1.30;92.30
3850;DHT22;1940;51.052;13.678;2023-02-28T04:51:04;-1.20;92.70
3850;DHT22;1940;51.052;13.678;2023-02-28T04:53:30;-1.20;92.30
3850;DHT22;1940;51.052;13.678;2023-02-28T04:55:57;-1.20;92.20
3850;DHT22;1940;51.052;13.678;2023-02-28T04:58:22;-1.10;92.10
3850;DHT22;1940;51.052;13.678;2023-02-28T05:00:49;-1.10;91.70
3850;DHT22;1940;51.052;13.678;2023-02-28T05:03:14;-1.20;91.90
3850;DHT22;1940;51.052;13.678;2023-02-28T05:05:40;-1.10;91.70
3850;DHT22;1940;51.052;13.678;2023-02-28T05:08:05;-1.10;91.80
3850;DHT22;1940;51.052;13.678;2023-02-28T05:10:31;-1.10;91.60
3850;DHT22;1940;51.052;13.678;2023-02-28T05:12:57;-1.20;91.50
3850;DHT22;1940;51.052;13.678;2023-02-28T05:15:24;-1.20;91.80
3850;DHT22;1940;51.052;13.678;2023-02-28T05:17:50;-1.20;91.80
3850;DHT22;1940;51.052;13.678;2023-02-28T05:20:15;-1.10;91.60
3850;DHT22;1940;51.052;13.678;2023-02-28T05:22:43;-1.10;91.40
3850;DHT22;1940;51.052;13.678;2023-02-28T05:25:13;-1.10;91.30
3850;DHT22;1940;51.052;13.678;2023-02-28T05:27:41;-1.10;91.30
3850;DHT22;1940;51.052;13.678;2023-02-28T05:30:07;-1.10;91.10
3850;DHT22;1940;51.052;13.678;2023-02-28T05:32:36;-1.10;91.10
3850;DHT22;1940;51.052;13.678;2023-02-28T05:35:02;-1.20;91.20
3850;DHT22;1940;51.052;13.678;2023-02-28T05:37:27;-1.20;91.30
3850;DHT22;1940;51.052;13.678;2023-02-28T05:39:53;-1.20;91.40
3850;DHT22;1940;51.052;13.678;2023-02-28T05:42:18;-1.20;91.40
3850;DHT22;1940;51.052;13.678;2023-02-28T05:44:44;-1.20;91.30
3850;DHT22;1940;51.052;13.678;2023-02-28T05:47:09;-1.20;91.60
3850;DHT22;1940;51.052;13.678;2023-02-28T05:49:35;-1.20;92.10
3850;DHT22;1940;51.052;13.678;2023-02-28T05:52:00;-1.30;92.00
3850;DHT22;1940;51.052;13.678;2023-02-28T05:54:25;-1.30;91.80
3850;DHT22;1940;51.052;13.678;2023-02-28T05:56:51;-1.40;91.90
3850;DHT22;1940;51.052;13.678;2023-02-28T05:59:16;-1.30;91.90
3850;DHT22;1940;51.052;13.678;2023-02-28T06:01:44;-1.40;91.70
3850;DHT22;1940;51.052;13.678;2023-02-28T06:04:18;-1.40;91.90
3850;DHT22;1940;51.052;13.678;2023-02-28T06:06:48;-1.40;92.00
3850;DHT22;1940;51.052;13.678;2023-02-28T06:09:14;-1.30;91.80
3850;DHT22;1940;51.052;13.678;2023-02-28T06:11:40;-1.40;91.80
3850;DHT22;1940;51.052;13.678;2023-02-28T06:14:06;-1.30;91.80
3850;DHT22;1940;51.052;13.678;2023-02-28T06:16:33;-1.20;91.60
3850;DHT22;1940;51.052;13.678;2023-02-28T06:19:01;-1.20;91.50
3850;DHT22;1940;51.052;13.678;2023-02-28T06:21:28;-1.20;91.60
3850;DHT22;1940;51.052;13.678;2023-02-28T06:23:54;-1.20;91.40
3850;DHT22;1940;51.052;13.678;2023-02-28T06:26:20;-1.20;91.40
3850;DHT22;1940;51.052;13.678;2023-02-28T06:28:46;-1.20;91.30
3850;DHT22;1940;51.052;13.678;2023-02-28T06:31:13;-1.20;91.10
3850;DHT22;1940;51.052;13.678;2023-02-28T06:33:40;-1.10;91.10
3850;DHT22;1940;51.052;13.678;2023-02-28T06:36:06;-1.10;91.00
3850;DHT22;1940;51.052;13.678;2023-02-28T06:38:33;-1.00;91.00
3850;DHT22;1940;51.052;13.678;2023-02-28T06:41:00;-1.00;90.90
3850;DHT22;1940;51.052;13.678;2023-02-28T06:43:28;-1.00;90.90
3850;DHT22;1940;51.052;13.678;2023-02-28T06:45:59;-0.90;90.80
3850;DHT22;1940;51.052;13.678;2023-02-28T06:48:26;-0.90;90.70
3850;DHT22;1940;51.052;13.678;2023-02-28T06:50:52;-0.80;90.40
3850;DHT22;1940;51.052;13.678;2023-02-28T06:53:17;-0.80;90.20
3850;DHT22;1940;51.052;13.678;2023-02-28T06:55:43;-0.70;90.10
3850;DHT22;1940;51.052;13.678;2023-02-28T06:58:09;-0.70;90.00
3850;DHT22;1940;51.052;13.678;2023-02-28T07:00:43;-0.70;90.10
3850;DHT22;1940;51.052;13.678;2023-02-28T07:03:10;-0.70;90.10
3850;DHT22;1940;51.052;13.678;2023-02-28T07:05:37;-0.70;90.00
3850;DHT22;1940;51.052;13.678;2023-02-28T07:08:03;-0.70;90.10
3850;DHT22;1940;51.052;13.678;2023-02-28T07:10:30;-0.70;90.00
3850;DHT22;1940;51.052;13.678;2023-02-28T07:12:55;-0.60;89.90
3850;DHT22;1940;51.052;13.678;2023-02-28T07:15:21;-0.50;89.50
3850;DHT22;1940;51.052;13.678;2023-02-28T07:17:46;-0.40;89.10
3850;DHT22;1940;51.052;13.678;2023-02-28T07:20:12;-0.30;89.00
3850;DHT22;1940;51.052;13.678;2023-02-28T07:22:37;-0.20;88.50
3850;DHT22;1940;51.052;13.678;2023-02-28T07:25:04;-0.20;88.40
3850;DHT22;1940;51.052;13.678;2023-02-28T07:27:30;-0.10;88.10
3850;DHT22;1940;51.052;13.678;2023-02-28T07:29:55;0.00;87.70
3850;DHT22;1940;51.052;13.678;2023-02-28T07:32:21;0.00;87.90
3850;DHT22;1940;51.052;13.678;2023-02-28T07:34:46;0.20;88.00
3850;DHT22;1940;51.052;13.678;2023-02-28T07:37:12;0.40;87.20
3850;DHT22;1940;51.052;13.678;2023-02-28T07:39:37;0.50;86.60
3850;DHT22;1940;51.052;13.678;2023-02-28T07:42:06;0.80;86.40
3850;DHT22;1940;51.052;13.678;2023-02-28T07:44:34;1.20;85.50
3850;DHT22;1940;51.052;13.678;2023-02-28T07:47:00;1.30;84.60
3850;DHT22;1940;51.052;13.678;2023-02-28T07:49:26;2.10;85.30
3850;DHT22;1940;51.052;13.678;2023-02-28T07:51:51;3.10;82.70
3850;DHT22;1940;51.052;13.678;2023-02-28T07:54:17;4.20;79.00
3850;DHT22;1940;51.052;13.678;2023-02-28T07:56:42;5.30;75.30
3850;DHT22;1940;51.052;13.678;2023-02-28T07:59:08;6.20;73.00
3850;DHT22;1940;51.052;13.678;2023-02-28T08:01:34;6.90;69.60
3850;DHT22;1940;51.052;13.678;2023-02-28T08:04:00;7.60;67.20
3850;DHT22;1940;51.052;13.678;2023-02-28T08:06:25;8.40;65.40
3850;DHT22;1940;51.052;13.678;2023-02-28T08:08:52;9.60;61.80
3850;DHT22;1940;51.052;13.678;2023-02-28T08:11:18;10.00;59.60
3850;DHT22;1940;51.052;13.678;2023-02-28T08:13:45;10.60;57.90
3850;DHT22;1940;51.052;13.678;2023-02-28T08:16:11;10.30;57.40
3850;DHT22;1940;51.052;13.678;2023-02-28T08:18:37;10.20;56.50
3850;DHT22;1940;51.052;13.678;2023-02-28T08:21:10;9.90;57.10
3850;DHT22;1940;51.052;13.678;2023-02-28T08:23:36;10.50;56.20
3850;DHT22;1940;51.052;13.678;2023-02-28T08:26:02;11.20;53.70
3850;DHT22;1940;51.052;13.678;2023-02-28T08:28:28;10.90;53.30
3850;DHT22;1940;51.052;13.678;2023-02-28T08:30:54;10.00;55.00
3850;DHT22;1940;51.052;13.678;2023-02-28T08:33:19;10.70;54.70
3850;DHT22;1940;51.052;13.678;2023-02-28T08:35:45;10.90;53.10
3850;DHT22;1940;51.052;13.678;2023-02-28T08:38:10;11.00;53.60
3850;DHT22;1940;51.052;13.678;2023-02-28T08:40:36;10.10;54.10
3850;DHT22;1940;51.052;13.678;2023-02-28T08:43:01;9.00;56.60
3850;DHT22;1940;51.052;13.678;2023-02-28T08:45:27;9.10;57.60
3850;DHT22;1940;51.052;13.678;2023-02-28T08:47:54;8.70;57.20
3850;DHT22;1940;51.052;13.678;2023-02-28T08:50:21;8.30;57.80
3850;DHT22;1940;51.052;13.678;2023-02-28T08:52:47;8.70;58.60
3850;DHT22;1940;51.052;13.678;2023-02-28T08:55:13;9.50;55.80
3850;DHT22;1940;51.052;13.678;2023-02-28T08:57:38;8.70;57.00
3850;DHT22;1940;51.052;13.678;2023-02-28T09:00:04;8.50;58.10
3850;DHT22;1940;51.052;13.678;2023-02-28T09:02:31;8.50;58.10
3850;DHT22;1940;51.052;13.678;2023-02-28T09:04:57;8.30;58.10
3850;DHT22;1940;51.052;13.678;2023-02-28T09:07:23;8.50;58.00
3850;DHT22;1940;51.052;13.678;2023-02-28T09:09:49;8.70;57.30
3850;DHT22;1940;51.052;13.678;2023-02-28T09:12:25;8.20;58.70
3850;DHT22;1940;51.052;13.678;2023-02-28T09:14:51;8.10;59.30
3850;DHT22;1940;51.052;13.678;2023-02-28T09:17:17;7.70;60.40
3850;DHT22;1940;51.052;13.678;2023-02-28T09:19:43;8.00;60.10
3850;DHT22;1940;51.052;13.678;2023-02-28T09:22:10;8.10;58.20
3850;DHT22;1940;51.052;13.678;2023-02-28T09:24:37;7.70;57.00
3850;DHT22;1940;51.052;13.678;2023-02-28T09:27:03;7.30;56.90
3850;DHT22;1940;51.052;13.678;2023-02-28T09:29:29;7.30;57.00
3850;DHT22;1940;51.052;13.678;2023-02-28T09:31:55;7.90;55.30
3850;DHT22;1940;51.052;13.678;2023-02-28T09:34:24;8.70;54.40
3850;DHT22;1940;51.052;13.678;2023-02-28T09:36:49;10.20;52.00
3850;DHT22;1940;51.052;13.678;2023-02-28T09:39:20;11.50;48.90
3850;DHT22;1940;51.052;13.678;2023-02-28T09:41:49;11.80;47.10
3850;DHT22;1940;51.052;13.678;2023-02-28T09:44:31;12.40;45.80
3850;DHT22;1940;51.052;13.678;2023-02-28T09:49:49;13.40;44.30
3850;DHT22;1940;51.052;13.678;2023-02-28T09:52:21;13.80;43.60
3850;DHT22;1940;51.052;13.678;2023-02-28T09:54:49;13.60;43.10
3850;DHT22;1940;51.052;13.678;2023-02-28T09:57:29;13.80;43.30
3850;DHT22;1940;51.052;13.678;2023-02-28T10:00:07;13.70;43.60
3850;DHT22;1940;51.052;13.678;2023-02-28T10:03:04;13.20;43.80
3850;DHT22;1940;51.052;13.678;2023-02-28T10:05:38;12.50;44.80
3850;DHT22;1940;51.052;13.678;2023-02-28T10:08:25;12.90;43.30
3850;DHT22;1940;51.052;13.678;2023-02-28T10:10:55;11.90;43.90
3850;DHT22;1940;51.052;13.678;2023-02-28T10:16:39;12.40;43.50
3850;DHT22;1940;51.052;13.678;2023-02-28T10:19:17;12.10;43.10
3850;DHT22;1940;51.052;13.678;2023-02-28T10:22:04;12.10;43.00
3850;DHT22;1940;51.052;13.678;2023-02-28T10:24:37;12.00;43.40
3850;DHT22;1940;51.052;13.678;2023-02-28T10:27:31;11.50;44.20
3850;DHT22;1940;51.052;13.678;2023-02-28T10:29:58;10.00;46.60
3850;DHT22;1940;51.052;13.678;2023-02-28T10:32:30;10.00;46.80
3850;DHT22;1940;51.052;13.678;2023-02-28T10:37:27;11.10;46.00
3850;DHT22;1940;51.052;13.678;2023-02-28T10:39:53;10.60;46.60
3850;DHT22;1940;51.052;13.678;2023-02-28T10:42:31;9.50;47.30
3850;DHT22;1940;51.052;13.678;2023-02-28T10:45:16;9.30;49.40
3850;DHT22;1940;51.052;13.678;2023-02-28T10:53:30;7.30;52.00
3850;DHT22;1940;51.052;13.678;2023-02-28T10:56:02;6.80;53.20
3850;DHT22;1940;51.052;13.678;2023-02-28T10:58:49;6.10;54.40
3850;DHT22;1940;51.052;13.678;2023-02-28T11:01:33;6.10;55.10
3850;DHT22;1940;51.052;13.678;2023-02-28T11:04:00;6.60;54.00
3850;DHT22;1940;51.052;13.678;2023-02-28T11:06:31;6.90;54.20
3850;DHT22;1940;51.052;13.678;2023-02-28T11:09:06;7.40;52.60
3850;DHT22;1940;51.052;13.678;2023-02-28T11:11:45;7.60;51.90
3850;DHT22;1940;51.052;13.678;2023-02-28T11:14:34;8.00;51.90
3850;DHT22;1940;51.052;13.678;2023-02-28T11:17:13;8.10;51.10
3850;DHT22;1940;51.052;13.678;2023-02-28T11:19:44;7.70;51.70
3850;DHT22;1940;51.052;13.678;2023-02-28T11:22:11;7.40;52.90
3850;DHT22;1940;51.052;13.678;2023-02-28T11:24:44;7.60;52.90
3850;DHT22;1940;51.052;13.678;2023-02-28T11:29:54;6.00;55.30
3850;DHT22;1940;51.052;13.678;2023-02-28T11:32:22;5.80;57.00
3850;DHT22;1940;51.052;13.678;2023-02-28T11:35:02;6.10;56.40
3850;DHT22;1940;51.052;13.678;2023-02-28T11:37:29;6.00;55.60
3850;DHT22;1940;51.052;13.678;2023-02-28T11:39:55;5.40;57.10
3850;DHT22;1940;51.052;13.678;2023-02-28T11:42:35;5.60;58.20
3850;DHT22;1940;51.052;13.678;2023-02-28T11:54:05;7.60;54.10
3850;DHT22;1940;51.052;13.678;2023-02-28T11:56:41;8.50;52.50
3850;DHT22;1940;51.052;13.678;2023-02-28T12:02:57;10.80;48.50
3850;DHT22;1940;51.052;13.678;2023-02-28T12:11:24;10.00;47.40
3850;DHT22;1940;51.052;13.678;2023-02-28T12:14:35;10.00;47.80
3850;DHT22;1940;51.052;13.678;2023-02-28T12:17:27;10.10;47.50
3850;DHT22;1940;51.052;13.678;2023-02-28T12:20:04;10.40;47.30
3850;DHT22;1940;51.052;13.678;2023-02-28T12:28:30;7.90;51.40
3850;DHT22;1940;51.052;13.678;2023-02-28T12:31:01;6.90;54.50
3850;DHT22;1940;51.052;13.678;2023-02-28T12:33:34;6.50;56.30
3850;DHT22;1940;51.052;13.678;2023-02-28T12:36:08;5.60;57.80
3850;DHT22;1940;51.052;13.678;2023-02-28T12:38:39;5.20;59.10
3850;DHT22;1940;51.052;13.678;2023-02-28T12:41:19;4.80;60.30
3850;DHT22;1940;51.052;13.678;2023-02-28T12:43:55;4.80;60.70
3850;DHT22;1940;51.052;13.678;2023-02-28T12:46:25;4.60;61.50
3850;DHT22;1940;51.052;13.678;2023-02-28T12:48:57;4.40;60.90
3850;DHT22;1940;51.052;13.678;2023-02-28T12:51:25;4.30;61.60
3850;DHT22;1940;51.052;13.678;2023-02-28T12:54:21;4.20;61.70
3850;DHT22;1940;51.052;13.678;2023-02-28T12:59:45;4.60;61.40
3850;DHT22;1940;51.052;13.678;2023-02-28T13:11:43;4.50;60.90
3850;DHT22;1940;51.052;13.678;2023-02-28T13:14:28;4.20;62.20
3850;DHT22;1940;51.052;13.678;2023-02-28T13:19:25;4.00;62.10
3850;DHT22;1940;51.052;13.678;2023-02-28T13:21:51;4.00;62.30
3850;DHT22;1940;51.052;13.678;2023-02-28T13:24:45;4.10;62.40
3850;DHT22;1940;51.052;13.678;2023-02-28T13:29:50;4.10;61.60
3850;DHT22;1940;51.052;13.678;2023-02-28T13:37:42;4.00;61.80
3850;DHT22;1940;51.052;13.678;2023-02-28T13:47:45;3.90;61.80
3850;DHT22;1940;51.052;13.678;2023-02-28T13:52:52;3.90;61.10
3850;DHT22;1940;51.052;13.678;2023-02-28T14:01:10;3.90;62.10
3850;DHT22;1940;51.052;13.678;2023-02-28T14:06:34;3.90;62.10
3850;DHT22;1940;51.052;13.678;2023-02-28T14:09:53;4.00;61.80
3850;DHT22;1940;51.052;13.678;2023-02-28T14:18:00;4.00;61.40
3850;DHT22;1940;51.052;13.678;2023-02-28T14:20:29;4.10;61.80
3850;DHT22;1940;51.052;13.678;2023-02-28T14:23:02;4.10;61.60
3850;DHT22;1940;51.052;13.678;2023-02-28T14:25:39;4.10;61.60
3850;DHT22;1940;51.052;13.678;2023-02-28T14:28:27;4.20;61.60
3850;DHT22;1940;51.052;13.678;2023-02-28T14:31:00;4.20;60.80
3850;DHT22;1940;51.052;13.678;2023-02-28T14:36:22;4.30;60.60
3850;DHT22;1940;51.052;13.678;2023-02-28T14:39:15;4.20;61.20
3850;DHT22;1940;51.052;13.678;2023-02-28T14:41:43;4.10;60.90
3850;DHT22;1940;51.052;13.678;2023-02-28T14:44:19;4.00;61.40
3850;DHT22;1940;51.052;13.678;2023-02-28T14:46:46;4.00;61.90
3850;DHT22;1940;51.052;13.678;2023-02-28T14:49:18;4.00;62.10
3850;DHT22;1940;51.052;13.678;2023-02-28T14:51:44;4.10;62.40
3850;DHT22;1940;51.052;13.678;2023-02-28T14:54:14;4.00;61.30
3850;DHT22;1940;51.052;13.678;2023-02-28T14:56:41;4.00;61.40
3850;DHT22;1940;51.052;13.678;2023-02-28T14:59:28;3.90;61.80
3850;DHT22;1940;51.052;13.678;2023-02-28T15:02:14;3.80;62.30
3850;DHT22;1940;51.052;13.678;2023-02-28T15:04:40;3.80;62.10
3850;DHT22;1940;51.052;13.678;2023-02-28T15:07:08;3.80;62.10
3850;DHT22;1940;51.052;13.678;2023-02-28T15:09:34;3.80;62.60
3850;DHT22;1940;51.052;13.678;2023-02-28T15:11:59;3.70;62.80
3850;DHT22;1940;51.052;13.678;2023-02-28T15:14:26;3.60;63.50
3850;DHT22;1940;51.052;13.678;2023-02-28T15:16:57;3.80;63.40
3850;DHT22;1940;51.052;13.678;2023-02-28T15:19:30;3.80;62.90
3850;DHT22;1940;51.052;13.678;2023-02-28T15:22:11;3.80;62.40
3850;DHT22;1940;51.052;13.678;2023-02-28T15:24:40;3.80;62.40
3850;DHT22;1940;51.052;13.678;2023-02-28T15:29:48;3.60;62.80
3850;DHT22;1940;51.052;13.678;2023-02-28T15:32:34;3.60;63.50
3850;DHT22;1940;51.052;13.678;2023-02-28T15:37:56;3.50;63.70
3850;DHT22;1940;51.052;13.678;2023-02-28T15:40:44;3.50;64.20
3850;DHT22;1940;51.052;13.678;2023-02-28T15:43:18;3.50;64.40
3850;DHT22;1940;51.052;13.678;2023-02-28T15:45:50;3.50;64.20
3850;DHT22;1940;51.052;13.678;2023-02-28T15:48:22;3.40;64.20
3850;DHT22;1940;51.052;13.678;2023-02-28T15:50:51;3.40;64.10
3850;DHT22;1940;51.052;13.678;2023-02-28T15:53:21;3.40;64.20
3850;DHT22;1940;51.052;13.678;2023-02-28T15:55:57;3.30;64.60
3850;DHT22;1940;51.052;13.678;2023-02-28T15:58:24;3.20;65.00
3850;DHT22;1940;51.052;13.678;2023-02-28T16:01:20;3.20;65.30
3850;DHT22;1940;51.052;13.678;2023-02-28T16:03:51;3.20;65.30
3850;DHT22;1940;51.052;13.678;2023-02-28T16:06:28;3.20;65.30
3850;DHT22;1940;51.052;13.678;2023-02-28T16:08:56;3.20;65.30
3850;DHT22;1940;51.052;13.678;2023-02-28T16:11:22;3.30;65.50
3850;DHT22;1940;51.052;13.678;2023-02-28T16:13:48;3.40;65.70
3850;DHT22;1940;51.052;13.678;2023-02-28T16:16:22;3.40;65.10
3850;DHT22;1940;51.052;13.678;2023-02-28T16:18:49;3.30;65.30
3850;DHT22;1940;51.052;13.678;2023-02-28T16:21:15;3.40;65.10
3850;DHT22;1940;51.052;13.678;2023-02-28T16:23:41;3.50;64.70
3850;DHT22;1940;51.052;13.678;2023-02-28T16:26:08;3.40;64.80
3850;DHT22;1940;51.052;13.678;2023-02-28T16:28:37;3.40;65.10
3850;DHT22;1940;51.052;13.678;2023-02-28T16:31:05;3.40;64.80
3850;DHT22;1940;51.052;13.678;2023-02-28T16:33:32;3.40;64.90
3850;DHT22;1940;51.052;13.678;2023-02-28T16:35:58;3.40;64.80
3850;DHT22;1940;51.052;13.678;2023-02-28T16:38:24;3.30;65.10
3850;DHT22;1940;51.052;13.678;2023-02-28T16:40:50;3.40;65.10
3850;DHT22;1940;51.052;13.678;2023-02-28T16:43:19;3.30;65.00
3850;DHT22;1940;51.052;13.678;2023-02-28T16:45:46;3.30;65.20
3850;DHT22;1940;51.052;13.678;2023-02-28T16:48:14;3.30;65.00
3850;DHT22;1940;51.052;13.678;2023-02-28T16:50:40;3.30;65.20
3850;DHT22;1940;51.052;13.678;2023-02-28T16:53:06;3.30;65.50
3850;DHT22;1940;51.052;13.678;2023-02-28T16:55:32;3.20;65.70
3850;DHT22;1940;51.052;13.678;2023-02-28T16:57:59;3.20;66.10
3850;DHT22;1940;51.052;13.678;2023-02-28T17:00:27;3.20;66.00
3850;DHT22;1940;51.052;13.678;2023-02-28T17:02:53;3.10;66.50
3850;DHT22;1940;51.052;13.678;2023-02-28T17:05:19;3.00;67.10
3850;DHT22;1940;51.052;13.678;2023-02-28T17:07:45;3.00;67.40
3850;DHT22;1940;51.052;13.678;2023-02-28T17:12:45;3.00;67.90
3850;DHT22;1940;51.052;13.678;2023-02-28T17:15:13;3.00;67.80
3850;DHT22;1940;51.052;13.678;2023-02-28T17:17:40;2.90;67.40
3850;DHT22;1940;51.052;13.678;2023-02-28T17:20:09;2.90;67.40
3850;DHT22;1940;51.052;13.678;2023-02-28T17:22:36;2.80;68.20
3850;DHT22;1940;51.052;13.678;2023-02-28T17:25:02;2.80;69.50
3850;DHT22;1940;51.052;13.678;2023-02-28T17:27:27;2.80;70.70
3850;DHT22;1940;51.052;13.678;2023-02-28T17:29:53;2.80;69.90
3850;DHT22;1940;51.052;13.678;2023-02-28T17:32:18;2.80;69.80
3850;DHT22;1940;51.052;13.678;2023-02-28T17:34:44;2.70;69.90
3850;DHT22;1940;51.052;13.678;2023-02-28T17:37:11;2.70;70.20
3850;DHT22;1940;51.052;13.678;2023-02-28T17:39:36;2.60;70.80
3850;DHT22;1940;51.052;13.678;2023-02-28T17:42:02;2.60;70.90
3850;DHT22;1940;51.052;13.678;2023-02-28T17:44:27;2.50;71.10
3850;DHT22;1940;51.052;13.678;2023-02-28T17:46:54;2.50;71.40
3850;DHT22;1940;51.052;13.678;2023-02-28T17:49:20;2.50;71.60
3850;DHT22;1940;51.052;13.678;2023-02-28T17:51:47;2.40;71.90
3850;DHT22;1940;51.052;13.678;2023-02-28T17:54:13;2.30;72.10
3850;DHT22;1940;51.052;13.678;2023-02-28T17:56:40;2.30;72.30
3850;DHT22;1940;51.052;13.678;2023-02-28T17:59:05;2.30;72.40
3850;DHT22;1940;51.052;13.678;2023-02-28T18:01:31;2.20;72.80
3850;DHT22;1940;51.052;13.678;2023-02-28T18:03:56;2.20;72.90
3850;DHT22;1940;51.052;13.678;2023-02-28T18:06:24;2.10;73.10
3850;DHT22;1940;51.052;13.678;2023-02-28T18:08:52;2.10;73.20
3850;DHT22;1940;51.052;13.678;2023-02-28T18:11:18;2.00;73.60
3850;DHT22;1940;51.052;13.678;2023-02-28T18:13:46;2.00;74.00
3850;DHT22;1940;51.052;13.678;2023-02-28T18:16:12;1.90;74.30
3850;DHT22;1940;51.052;13.678;2023-02-28T18:18:37;1.90;74.50